Braden, Tennessee
Current Conditions -  °F | °C
As of 9:50 AM on Wednesday 28 Jan 2015 (Local Time) from KNQA Reporting Station
Few Clouds Few Clouds  
Wind Chill: 36°   Ceiling: Unl
Heat Index: 41°   Visibility: 10mi
Dew Point: 30°   Wind: 7mph
Humidity: 65%   Direction: NA
Pressure: 30.31"   Gusts: NA
Location:  35.38°N, 89.57°W
Report Text: KNQA 281550Z VRB06KT 10SM FEW250 05/M01 A3031
Loading
Personal Weather Stations






























Interactive Weather Map New forecast layout! Learn more

10-Day Weather Forecast

Advertisements
Track Severe Weather on mobile